Terminal Aerodrome Forecast
Issued by NWS

Home | Current Version | Previous Version | Text Only | Print | Product List | Glossary On
Versions: 1 2 3 4 5 6 7 8 9 10 11 12 13 14 15
797
FTUS46 KSEW 092320
TAFHQM
TAF
KHQM 092320Z 1000/1024 08006KT P6SM SCT250
     FM101100 09008KT P6SM OVC100
     FM101500 09008KT 5SM -RA BR SCT025 OVC040
     FM102000 16012KT 4SM -RA BR BKN025 OVC040=

USA.gov is the U.S. government's official web portal to all federal, state and local government web resources and services.